createdAt,value
2022-12-18T00:01:15.115Z,100.00
2022-12-18T00:03:42.036Z,100.00
2022-12-18T00:06:09.731Z,100.00
2022-12-18T00:08:36.264Z,100.00
2022-12-18T00:11:07.391Z,99.73
2022-12-18T00:13:34.551Z,99.94
2022-12-18T00:16:06.383Z,100.00
2022-12-18T00:18:33.744Z,99.71
2022-12-18T00:21:02.065Z,99.49
2022-12-18T00:23:29.523Z,99.78
2022-12-18T00:25:56.053Z,100.00
2022-12-18T00:28:22.552Z,99.89
2022-12-18T00:30:52.294Z,99.52
2022-12-18T00:33:19.171Z,100.00
2022-12-18T00:35:45.628Z,100.00
2022-12-18T00:38:12.076Z,99.96
2022-12-18T00:40:38.524Z,99.68
2022-12-18T00:43:04.967Z,99.77
2022-12-18T00:45:32.766Z,99.72
2022-12-18T00:47:59.326Z,99.57
2022-12-18T00:50:26.570Z,99.11
2022-12-18T00:52:53.059Z,99.61
2022-12-18T00:55:19.967Z,99.73
2022-12-18T00:57:46.475Z,99.19
2022-12-18T01:00:14.815Z,99.65
2022-12-18T01:02:42.092Z,99.53
2022-12-18T01:05:13.884Z,100.00
2022-12-18T01:07:40.718Z,100.00
2022-12-18T01:10:08.525Z,100.00
2022-12-18T01:12:35.187Z,100.00
2022-12-18T01:15:01.864Z,99.87
2022-12-18T01:17:28.454Z,99.72
2022-12-18T01:19:55.040Z,99.40
2022-12-18T01:22:21.667Z,99.65
2022-12-18T01:24:48.079Z,100.00
2022-12-18T01:27:14.804Z,99.56
2022-12-18T01:29:41.306Z,99.84
2022-12-18T01:32:07.815Z,99.54
2022-12-18T01:34:35.332Z,99.27
2022-12-18T01:37:04.335Z,99.68
2022-12-18T01:39:30.980Z,99.59
2022-12-18T01:42:03.537Z,99.26
2022-12-18T01:44:59.375Z,99.30
2022-12-18T01:47:44.746Z,99.16
2022-12-18T01:50:15.056Z,100.00
2022-12-18T01:52:44.726Z,99.77
2022-12-18T01:55:13.326Z,99.95
2022-12-18T01:57:41.322Z,99.95
2022-12-18T02:00:17.236Z,99.51
2022-12-18T02:02:45.957Z,99.44
2022-12-18T02:05:16.419Z,99.89
2022-12-18T02:08:16.174Z,99.74
2022-12-18T02:10:57.994Z,99.22
2022-12-18T02:13:44.832Z,99.56
2022-12-18T02:16:16.299Z,98.40
2022-12-18T02:18:48.969Z,98.83
2022-12-18T02:21:18.218Z,98.15
2022-12-18T02:24:01.335Z,99.28
2022-12-18T02:26:45.882Z,98.47
2022-12-18T02:29:36.258Z,99.23
2022-12-18T02:32:07.036Z,97.96
2022-12-18T02:34:39.288Z,98.49
2022-12-18T02:37:08.973Z,98.02
2022-12-18T02:39:39.179Z,98.83
2022-12-18T02:42:08.953Z,98.65
2022-12-18T02:44:43.604Z,99.38
2022-12-18T02:47:13.504Z,98.39
2022-12-18T02:50:08.922Z,98.90
2022-12-18T02:52:38.213Z,98.54
2022-12-18T02:55:25.896Z,99.00
2022-12-18T02:58:15.414Z,97.94
2022-12-18T03:01:10.823Z,97.87
2022-12-18T03:03:45.996Z,99.35
2022-12-18T03:06:26.336Z,98.02
2022-12-18T03:08:59.129Z,98.92
2022-12-18T03:11:47.954Z,97.79
2022-12-18T03:14:18.400Z,98.72
2022-12-18T03:16:47.048Z,97.51
2022-12-18T03:19:17.928Z,97.88
2022-12-18T03:21:50.513Z,97.69
2022-12-18T03:24:20.021Z,97.05
2022-12-18T03:26:50.223Z,97.61
2022-12-18T03:29:23.807Z,97.65
2022-12-18T03:31:57.961Z,98.48
2022-12-18T03:34:31.067Z,98.30
2022-12-18T03:36:59.014Z,98.09
2022-12-18T03:39:26.367Z,98.52
2022-12-18T03:41:56.384Z,98.08
2022-12-18T03:44:50.327Z,97.99
2022-12-18T03:47:25.874Z,97.12
2022-12-18T03:50:09.621Z,98.15
2022-12-18T03:52:54.998Z,97.55
2022-12-18T03:55:22.879Z,97.30
2022-12-18T03:57:56.954Z,97.05
2022-12-18T04:00:23.485Z,97.52
2022-12-18T04:02:56.247Z,97.55
2022-12-18T04:05:25.307Z,96.78
2022-12-18T04:07:53.499Z,96.80
2022-12-18T04:10:20.000Z,97.20
2022-12-18T04:12:46.553Z,96.44
2022-12-18T04:15:14.466Z,96.32
2022-12-18T04:17:48.609Z,96.47
2022-12-18T04:20:15.377Z,96.62
2022-12-18T04:22:42.627Z,96.61
2022-12-18T04:25:09.319Z,97.62
2022-12-18T04:27:35.829Z,96.79
2022-12-18T04:30:02.700Z,96.49
2022-12-18T04:32:29.152Z,96.72
2022-12-18T04:34:55.852Z,97.91
2022-12-18T04:37:22.288Z,97.52
2022-12-18T04:39:48.737Z,97.11
2022-12-18T04:42:15.212Z,97.93
2022-12-18T04:44:41.670Z,97.39
2022-12-18T04:47:08.636Z,97.58
2022-12-18T04:49:35.064Z,98.34
2022-12-18T04:52:01.515Z,97.76
2022-12-18T04:54:27.990Z,98.23
2022-12-18T04:56:54.445Z,96.77
2022-12-18T04:59:21.706Z,98.01
2022-12-18T05:01:48.351Z,97.24
2022-12-18T05:04:14.958Z,97.82
2022-12-18T05:06:41.381Z,98.14
2022-12-18T05:09:07.831Z,98.19
2022-12-18T05:11:34.289Z,97.36
2022-12-18T05:14:00.741Z,97.07
2022-12-18T05:16:27.223Z,98.48
2022-12-18T05:18:53.695Z,96.92
2022-12-18T05:21:20.177Z,98.07
2022-12-18T05:23:46.635Z,97.38
2022-12-18T05:26:17.409Z,96.91
2022-12-18T05:28:44.802Z,96.59
2022-12-18T05:31:11.561Z,97.60
2022-12-18T05:33:38.537Z,96.85
2022-12-18T05:36:07.740Z,97.42
2022-12-18T05:38:36.212Z,97.07
2022-12-18T05:41:04.577Z,97.06
2022-12-18T05:43:31.356Z,96.08
2022-12-18T05:45:58.483Z,95.87
2022-12-18T05:48:24.983Z,96.48
2022-12-18T05:50:52.061Z,97.13
2022-12-18T05:53:20.601Z,97.26
2022-12-18T05:55:47.949Z,97.20
2022-12-18T05:58:15.406Z,96.95
2022-12-18T06:00:44.437Z,96.99
2022-12-18T06:03:12.757Z,95.98
2022-12-18T06:05:41.848Z,97.50
2022-12-18T06:08:08.785Z,96.55
2022-12-18T06:10:35.402Z,97.62
2022-12-18T06:13:02.212Z,96.60
2022-12-18T06:15:28.689Z,96.33
2022-12-18T06:17:55.221Z,96.15
2022-12-18T06:20:21.720Z,96.57
2022-12-18T06:22:48.173Z,96.25
2022-12-18T06:25:14.670Z,95.71
2022-12-18T06:27:41.301Z,95.67
2022-12-18T06:30:09.537Z,95.91
2022-12-18T06:32:35.993Z,96.95
2022-12-18T06:35:02.437Z,96.28
2022-12-18T06:37:29.264Z,95.82
2022-12-18T06:39:57.468Z,96.20
2022-12-18T06:42:25.089Z,95.70
2022-12-18T06:44:51.616Z,95.95
2022-12-18T06:47:18.096Z,96.22
2022-12-18T06:49:44.565Z,96.12
2022-12-18T06:52:11.011Z,95.99
2022-12-18T06:54:37.602Z,95.66
2022-12-18T06:57:04.131Z,95.21
2022-12-18T06:59:30.657Z,96.18
2022-12-18T07:01:57.228Z,95.71
2022-12-18T07:04:28.916Z,95.98
2022-12-18T07:06:55.358Z,95.12
2022-12-18T07:09:22.048Z,95.48
2022-12-18T07:11:48.508Z,96.13
2022-12-18T07:14:14.980Z,95.10
2022-12-18T07:16:41.874Z,95.92
2022-12-18T07:19:08.379Z,95.08
2022-12-18T07:21:34.872Z,95.74
2022-12-18T07:24:01.358Z,95.54
2022-12-18T07:26:27.927Z,95.85
2022-12-18T07:28:58.612Z,94.94
2022-12-18T07:31:26.148Z,95.85
2022-12-18T07:33:53.083Z,95.66
2022-12-18T07:36:20.372Z,94.96
2022-12-18T07:38:50.827Z,95.07
2022-12-18T07:41:17.439Z,95.65
2022-12-18T07:43:44.423Z,95.99
2022-12-18T07:46:13.583Z,95.90
2022-12-18T07:48:41.307Z,95.99
2022-12-18T07:51:08.337Z,95.15
2022-12-18T07:53:37.216Z,96.02
2022-12-18T07:58:53.477Z,95.83
2022-12-18T08:01:20.073Z,95.83
2022-12-18T08:03:47.838Z,95.53
2022-12-18T08:06:14.961Z,95.12
2022-12-18T08:08:43.099Z,96.01
2022-12-18T08:11:09.600Z,96.30
2022-12-18T08:13:36.328Z,95.42
2022-12-18T08:16:06.338Z,95.40
2022-12-18T08:18:37.745Z,95.89
2022-12-18T08:21:11.383Z,95.59
2022-12-18T08:23:42.580Z,95.88
2022-12-18T08:26:10.111Z,96.00
2022-12-18T08:28:36.779Z,95.61
2022-12-18T08:31:03.322Z,95.55
2022-12-18T08:33:29.812Z,95.12
2022-12-18T08:35:56.256Z,95.18
2022-12-18T08:38:23.811Z,95.74
2022-12-18T08:40:50.261Z,95.16
2022-12-18T08:43:51.826Z,96.68
2022-12-18T08:46:19.640Z,95.79
2022-12-18T08:48:46.526Z,96.14
2022-12-18T08:51:13.537Z,95.67
2022-12-18T08:53:40.362Z,95.76
2022-12-18T08:56:07.644Z,96.40
2022-12-18T08:58:34.193Z,95.14
2022-12-18T09:01:05.803Z,95.68
2022-12-18T09:03:32.349Z,95.93
2022-12-18T09:05:59.019Z,96.76
2022-12-18T09:08:25.520Z,96.67
2022-12-18T09:10:52.644Z,96.63
2022-12-18T09:13:19.847Z,95.81
2022-12-18T09:15:48.918Z,96.09
2022-12-18T09:18:17.145Z,95.59
2022-12-18T09:20:44.416Z,96.19
2022-12-18T09:23:11.325Z,95.71
2022-12-18T09:25:38.847Z,96.52
2022-12-18T09:28:12.063Z,96.87
2022-12-18T09:30:40.173Z,96.93
2022-12-18T09:33:06.679Z,96.70
2022-12-18T09:35:36.796Z,96.46
2022-12-18T09:38:03.328Z,95.71
2022-12-18T09:40:35.927Z,96.07
2022-12-18T09:43:05.718Z,96.34
2022-12-18T09:45:43.703Z,96.08
2022-12-18T09:48:31.832Z,95.50
2022-12-18T09:51:05.125Z,96.40
2022-12-18T09:53:36.445Z,95.69
2022-12-18T09:56:05.249Z,95.91
2022-12-18T09:58:39.763Z,96.25
2022-12-18T10:01:19.413Z,95.45
2022-12-18T10:03:46.002Z,95.49
2022-12-18T10:06:24.976Z,95.76
2022-12-18T10:09:11.372Z,95.59
2022-12-18T10:11:48.220Z,95.47
2022-12-18T10:14:40.990Z,95.46
2022-12-18T10:17:27.849Z,95.21
2022-12-18T10:19:59.672Z,95.60
2022-12-18T10:22:38.199Z,94.70
2022-12-18T10:25:28.404Z,95.42
2022-12-18T10:28:01.250Z,94.79
2022-12-18T10:30:27.993Z,94.44
2022-12-18T10:32:57.060Z,94.59
2022-12-18T10:35:26.753Z,94.23
2022-12-18T10:38:14.954Z,93.75
2022-12-18T10:41:03.401Z,93.15
2022-12-18T10:43:31.291Z,93.38
2022-12-18T10:46:10.092Z,93.37
2022-12-18T10:48:48.658Z,94.14
2022-12-18T10:51:31.625Z,93.07
2022-12-18T10:54:18.587Z,93.62
2022-12-18T10:56:45.861Z,93.34
2022-12-18T10:59:17.864Z,93.46
2022-12-18T11:01:53.464Z,92.28
2022-12-18T11:04:32.597Z,92.21
2022-12-18T11:07:00.255Z,92.08
2022-12-18T11:09:29.746Z,91.73
2022-12-18T11:12:07.054Z,91.48
2022-12-18T11:14:46.868Z,92.25
2022-12-18T11:17:26.687Z,90.92
2022-12-18T11:20:27.636Z,91.39
2022-12-18T11:23:03.739Z,91.79
2022-12-18T11:25:32.480Z,91.45
2022-12-18T11:28:03.659Z,89.87
2022-12-18T11:30:35.214Z,91.04
2022-12-18T11:33:06.632Z,90.83
2022-12-18T11:35:43.101Z,89.65
2022-12-18T11:38:35.543Z,89.71
2022-12-18T11:41:07.348Z,89.02
2022-12-18T11:43:53.214Z,89.21
2022-12-18T11:46:48.158Z,88.15
2022-12-18T11:49:14.616Z,89.09
2022-12-18T11:51:50.235Z,88.49
2022-12-18T11:54:17.344Z,88.72
2022-12-18T11:56:59.550Z,88.64
2022-12-18T11:59:37.837Z,87.83
2022-12-18T12:02:13.171Z,87.90
2022-12-18T12:04:42.529Z,88.00
2022-12-18T12:07:41.148Z,87.13
2022-12-18T12:10:25.888Z,87.58
2022-12-18T12:13:10.146Z,87.58
2022-12-18T12:15:57.135Z,86.67
2022-12-18T12:18:55.710Z,87.67
2022-12-18T12:21:29.114Z,87.57
2022-12-18T12:24:25.652Z,86.20
2022-12-18T12:27:21.587Z,87.03
2022-12-18T12:30:17.534Z,87.10
2022-12-18T12:33:03.632Z,86.70
2022-12-18T12:36:15.623Z,86.57
2022-12-18T12:38:51.879Z,85.52
2022-12-18T12:41:41.709Z,85.02
2022-12-18T12:44:14.186Z,85.30
2022-12-18T12:46:42.783Z,84.77
2022-12-18T12:49:40.413Z,85.17
2022-12-18T12:52:13.487Z,85.64
2022-12-18T12:54:40.814Z,84.32
2022-12-18T12:57:16.614Z,85.13
2022-12-18T13:00:22.989Z,85.15
2022-12-18T13:02:55.329Z,84.91
2022-12-18T13:05:39.551Z,85.11
2022-12-18T13:08:09.972Z,84.56
2022-12-18T13:10:40.009Z,84.57
2022-12-18T13:13:10.454Z,84.52
2022-12-18T13:15:47.699Z,84.71
2022-12-18T13:18:19.361Z,84.29
2022-12-18T13:20:59.756Z,84.41
2022-12-18T13:23:34.627Z,83.66
2022-12-18T13:26:27.956Z,84.17
2022-12-18T13:28:55.991Z,84.33
2022-12-18T13:31:40.714Z,83.26
2022-12-18T13:34:26.126Z,83.93
2022-12-18T13:36:55.454Z,83.57
2022-12-18T13:39:34.753Z,84.35
2022-12-18T13:42:08.565Z,83.69
2022-12-18T13:44:40.945Z,84.02
2022-12-18T13:47:34.413Z,83.31
2022-12-18T13:50:03.156Z,84.13
2022-12-18T13:52:37.521Z,83.35
2022-12-18T13:55:16.025Z,84.00
2022-12-18T13:57:42.545Z,83.40
2022-12-18T14:00:20.894Z,83.90
2022-12-18T14:02:47.677Z,83.30
2022-12-18T14:05:26.783Z,84.03
2022-12-18T14:07:55.562Z,83.23
2022-12-18T14:10:48.627Z,83.14
2022-12-18T14:13:15.055Z,83.20
2022-12-18T14:15:45.303Z,83.39
2022-12-18T14:18:17.905Z,83.03
2022-12-18T14:20:49.216Z,83.60
2022-12-18T14:23:37.637Z,83.32
2022-12-18T14:26:23.299Z,82.88
2022-12-18T14:28:50.184Z,83.69
2022-12-18T14:31:25.849Z,83.51
2022-12-18T14:33:53.604Z,83.33
2022-12-18T14:36:24.163Z,83.15
2022-12-18T14:38:56.540Z,82.32
2022-12-18T14:41:24.539Z,82.31
2022-12-18T14:43:52.852Z,82.46
2022-12-18T14:46:40.226Z,82.75
2022-12-18T14:49:24.892Z,82.64
2022-12-18T14:51:59.962Z,82.31
2022-12-18T14:54:28.503Z,82.55
2022-12-18T14:57:03.997Z,82.37
2022-12-18T14:59:31.416Z,82.34
2022-12-18T15:02:21.314Z,81.73
2022-12-18T15:04:47.999Z,81.89
2022-12-18T15:07:14.734Z,81.66
2022-12-18T15:09:43.828Z,82.13
2022-12-18T15:12:41.075Z,81.76
2022-12-18T15:15:45.812Z,81.53
2022-12-18T15:18:17.757Z,81.67
2022-12-18T15:21:09.215Z,81.86
2022-12-18T15:23:49.120Z,81.41
2022-12-18T15:26:17.949Z,81.01
2022-12-18T15:28:56.408Z,81.00
2022-12-18T15:31:28.771Z,81.28
2022-12-18T15:33:55.199Z,81.41
2022-12-18T15:36:26.139Z,81.85
2022-12-18T15:38:55.487Z,81.93
2022-12-18T15:41:26.345Z,81.31
2022-12-18T15:43:53.886Z,81.62
2022-12-18T15:46:22.958Z,80.96
2022-12-18T15:48:50.409Z,81.10
2022-12-18T15:51:34.171Z,81.11
2022-12-18T15:54:04.669Z,81.61
2022-12-18T15:56:49.934Z,81.48
2022-12-18T15:59:21.301Z,80.75
2022-12-18T16:01:49.946Z,80.99
2022-12-18T16:04:20.980Z,81.45
2022-12-18T16:09:34.408Z,81.32
2022-12-18T16:12:01.043Z,80.69
2022-12-18T16:14:32.342Z,81.23
2022-12-18T16:17:01.586Z,81.03
2022-12-18T16:19:28.875Z,79.94
2022-12-18T16:21:57.392Z,80.44
2022-12-18T16:24:30.108Z,80.20
2022-12-18T16:26:59.805Z,80.96
2022-12-18T16:29:30.310Z,80.03
2022-12-18T16:32:01.428Z,79.97
2022-12-18T16:34:35.930Z,80.75
2022-12-18T16:37:06.176Z,80.10
2022-12-18T16:39:36.749Z,79.91
2022-12-18T16:42:17.899Z,80.44
2022-12-18T16:44:44.923Z,79.77
2022-12-18T16:47:11.801Z,79.42
2022-12-18T16:49:41.789Z,80.23
2022-12-18T16:52:09.169Z,80.09
2022-12-18T16:54:36.742Z,80.36
2022-12-18T16:57:05.400Z,79.33
2022-12-18T16:59:32.195Z,79.68
2022-12-18T17:01:58.807Z,79.68
2022-12-18T17:04:25.467Z,79.16
2022-12-18T17:06:52.074Z,79.29
2022-12-18T17:09:23.754Z,79.53
2022-12-18T17:11:50.321Z,78.97
2022-12-18T17:14:20.378Z,79.19
2022-12-18T17:16:49.145Z,79.62
2022-12-18T17:19:17.885Z,79.24
2022-12-18T17:21:47.675Z,78.80
2022-12-18T17:24:14.408Z,78.81
2022-12-18T17:26:40.936Z,79.37
2022-12-18T17:29:07.551Z,79.51
2022-12-18T17:31:34.852Z,79.46
2022-12-18T17:34:03.083Z,78.91
2022-12-18T17:36:32.224Z,79.44
2022-12-18T17:39:01.473Z,78.88
2022-12-18T17:41:29.565Z,79.78
2022-12-18T17:44:00.637Z,78.92
2022-12-18T17:46:29.291Z,79.40
2022-12-18T17:48:57.265Z,78.74
2022-12-18T17:51:23.724Z,78.48
2022-12-18T17:53:50.300Z,79.41
2022-12-18T17:56:20.317Z,78.97
2022-12-18T17:58:48.017Z,79.35
2022-12-18T18:01:16.974Z,79.01
2022-12-18T18:03:44.820Z,79.40
2022-12-18T18:06:11.946Z,78.92
2022-12-18T18:08:38.463Z,79.61
2022-12-18T18:11:30.984Z,79.15
2022-12-18T18:14:00.691Z,79.19
2022-12-18T18:16:35.790Z,79.07
2022-12-18T18:19:07.331Z,79.15
2022-12-18T18:21:34.555Z,78.45
2022-12-18T18:24:03.253Z,78.69
2022-12-18T18:26:34.118Z,79.53
2022-12-18T18:29:03.003Z,79.37
2022-12-18T18:31:34.748Z,79.46
2022-12-18T18:34:08.664Z,78.92
2022-12-18T18:36:35.180Z,79.82
2022-12-18T18:39:02.211Z,78.83
2022-12-18T18:41:30.422Z,79.69
2022-12-18T18:43:58.319Z,79.76
2022-12-18T18:46:25.521Z,79.06
2022-12-18T18:48:52.106Z,79.78
2022-12-18T18:51:21.205Z,79.35
2022-12-18T18:53:49.768Z,78.94
2022-12-18T18:56:56.457Z,78.84
2022-12-18T18:59:04.682Z,78.74
2022-12-18T19:01:31.216Z,78.23
2022-12-18T19:03:57.816Z,78.52
2022-12-18T19:06:27.378Z,78.47
2022-12-18T19:08:55.986Z,78.79
2022-12-18T19:11:42.091Z,78.95
2022-12-18T19:14:10.377Z,78.41
2022-12-18T19:16:37.187Z,77.86
2022-12-18T19:19:04.437Z,78.50
2022-12-18T19:21:34.312Z,77.65
2022-12-18T19:24:02.787Z,78.34
2022-12-18T19:26:29.873Z,77.99
2022-12-18T19:29:07.766Z,77.28
2022-12-18T19:31:36.973Z,77.47
2022-12-18T19:34:07.957Z,76.66
2022-12-18T19:36:36.325Z,77.89
2022-12-18T19:39:12.478Z,77.83
2022-12-18T19:41:39.935Z,77.43
2022-12-18T19:44:08.172Z,77.11
2022-12-18T19:46:35.491Z,76.79
2022-12-18T19:49:02.036Z,77.45
2022-12-18T19:51:30.559Z,77.57
2022-12-18T19:54:00.534Z,78.13
2022-12-18T19:56:30.846Z,78.91
2022-12-18T19:58:57.741Z,79.74
2022-12-18T20:01:26.513Z,80.96
2022-12-18T20:03:53.715Z,81.62
2022-12-18T20:06:27.469Z,82.88
2022-12-18T20:08:57.992Z,83.73
2022-12-18T20:11:28.309Z,84.60
2022-12-18T20:13:54.873Z,84.49
2022-12-18T20:16:21.432Z,84.98
2022-12-18T20:18:49.205Z,85.98
2022-12-18T20:21:16.144Z,86.35
2022-12-18T20:23:43.170Z,86.77
2022-12-18T20:26:10.181Z,87.65
2022-12-18T20:28:36.762Z,87.70
2022-12-18T20:31:08.321Z,87.74
2022-12-18T20:33:37.150Z,88.39
2022-12-18T20:36:06.391Z,88.61
2022-12-18T20:38:35.608Z,88.92
2022-12-18T20:41:07.523Z,89.79
2022-12-18T20:43:34.196Z,89.62
2022-12-18T20:46:09.119Z,90.61
2022-12-18T20:48:36.045Z,90.89
2022-12-18T20:51:08.582Z,91.26
2022-12-18T20:53:35.989Z,91.07
2022-12-18T20:56:08.774Z,91.11
2022-12-18T20:58:36.102Z,91.22
2022-12-18T21:01:04.741Z,91.98
2022-12-18T21:03:31.314Z,92.83
2022-12-18T21:05:57.874Z,92.84
2022-12-18T21:08:24.328Z,93.01
2022-12-18T21:10:50.825Z,92.59
2022-12-18T21:13:17.315Z,93.02
2022-12-18T21:15:45.178Z,93.61
2022-12-18T21:18:11.741Z,93.70
2022-12-18T21:20:38.254Z,94.23
2022-12-18T21:23:16.349Z,94.34
2022-12-18T21:25:43.638Z,94.01
2022-12-18T21:28:10.079Z,94.95
2022-12-18T21:30:36.789Z,95.01
2022-12-18T21:33:03.500Z,94.68
2022-12-18T21:35:30.986Z,95.03
2022-12-18T21:37:58.633Z,95.18
2022-12-18T21:40:25.212Z,95.18
2022-12-18T21:43:10.491Z,95.77
2022-12-18T21:45:41.503Z,96.25
2022-12-18T21:48:08.060Z,95.91
2022-12-18T21:50:34.540Z,96.62
2022-12-18T21:53:00.966Z,96.48
2022-12-18T21:55:27.375Z,96.97
2022-12-18T21:57:54.194Z,96.85
2022-12-18T22:00:20.772Z,97.03
2022-12-18T22:02:59.934Z,97.22
2022-12-18T22:05:34.845Z,97.57
2022-12-18T22:08:01.722Z,98.15
2022-12-18T22:10:28.631Z,98.21
2022-12-18T22:12:55.203Z,98.40
2022-12-18T22:15:22.056Z,98.19
2022-12-18T22:17:50.381Z,98.32
2022-12-18T22:20:17.813Z,98.99
2022-12-18T22:22:46.909Z,98.98
2022-12-18T22:25:13.515Z,99.21
2022-12-18T22:27:39.968Z,99.12
2022-12-18T22:30:07.131Z,99.19
2022-12-18T22:32:35.555Z,99.60
2022-12-18T22:35:09.192Z,100.00
2022-12-18T22:37:37.214Z,100.00
2022-12-18T22:40:06.085Z,100.00
2022-12-18T22:42:34.306Z,100.00
2022-12-18T22:45:00.793Z,100.00
2022-12-18T22:47:30.016Z,100.00
2022-12-18T22:49:57.948Z,100.00
2022-12-18T22:52:25.052Z,100.00
2022-12-18T22:54:53.394Z,100.00
2022-12-18T22:57:20.793Z,100.00
2022-12-18T22:59:47.273Z,100.00
2022-12-18T23:02:13.831Z,100.00
2022-12-18T23:04:40.348Z,100.00
2022-12-18T23:07:06.954Z,100.00
2022-12-18T23:09:33.838Z,100.00
2022-12-18T23:12:00.708Z,100.00
2022-12-18T23:14:28.395Z,100.00
2022-12-18T23:16:55.053Z,100.00
2022-12-18T23:19:23.516Z,100.00
2022-12-18T23:21:50.849Z,100.00
2022-12-18T23:24:17.356Z,100.00
2022-12-18T23:26:43.779Z,100.00
2022-12-18T23:29:10.335Z,100.00
2022-12-18T23:31:38.896Z,100.00
2022-12-18T23:34:06.310Z,100.00
2022-12-18T23:36:43.523Z,100.00
2022-12-18T23:39:15.629Z,100.00
2022-12-18T23:41:55.963Z,100.00
2022-12-18T23:44:22.429Z,100.00
2022-12-18T23:46:48.915Z,100.00
2022-12-18T23:49:15.439Z,100.00
2022-12-18T23:51:41.884Z,100.00
2022-12-18T23:54:10.167Z,100.00
2022-12-18T23:56:36.604Z,100.00
2022-12-18T23:59:03.249Z,100.00
